createdAt,value
2019-04-30T00:00:01.959Z,98.70
2019-04-30T00:02:35.908Z,98.60
2019-04-30T00:05:05.511Z,98.50
2019-04-30T00:07:35.718Z,98.00
2019-04-30T00:10:10.091Z,98.50
2019-04-30T00:12:39.755Z,98.60
2019-04-30T00:15:11.111Z,98.20
2019-04-30T00:17:40.446Z,98.30
2019-04-30T00:20:10.034Z,98.60
2019-04-30T00:22:49.401Z,98.30
2019-04-30T00:25:11.103Z,98.20
2019-04-30T00:27:40.458Z,98.40
2019-04-30T00:30:10.355Z,98.60
2019-04-30T00:32:43.664Z,98.50
2019-04-30T00:35:11.751Z,98.40
2019-04-30T00:37:42.075Z,98.10
2019-04-30T00:40:11.576Z,98.00
2019-04-30T00:42:40.922Z,97.70
2019-04-30T00:45:12.095Z,98.10
2019-04-30T00:47:44.470Z,97.90
2019-04-30T00:50:15.014Z,98.10
2019-04-30T00:52:45.764Z,97.90
2019-04-30T00:55:15.411Z,98.20
2019-04-30T00:57:47.488Z,98.10
2019-04-30T01:00:25.359Z,98.60
2019-04-30T01:02:50.106Z,98.40
2019-04-30T01:05:21.208Z,98.90
2019-04-30T01:07:51.848Z,98.30
2019-04-30T01:10:24.834Z,98.40
2019-04-30T01:12:52.813Z,98.80
2019-04-30T01:15:22.238Z,97.90
2019-04-30T01:17:53.716Z,97.70
2019-04-30T01:20:31.368Z,97.80
2019-04-30T01:22:55.560Z,97.40
2019-04-30T01:25:25.288Z,97.50
2019-04-30T01:27:54.777Z,97.30
2019-04-30T01:30:24.682Z,97.50
2019-04-30T01:32:56.832Z,97.50
2019-04-30T01:35:31.280Z,97.10
2019-04-30T01:37:56.324Z,97.00
2019-04-30T01:40:25.696Z,97.10
2019-04-30T01:42:55.106Z,97.50
2019-04-30T01:45:28.104Z,97.50
2019-04-30T01:48:00.607Z,97.30
2019-04-30T01:50:26.632Z,97.70
2019-04-30T01:52:55.998Z,97.80
2019-04-30T01:55:27.178Z,97.60
2019-04-30T01:57:59.167Z,97.90
2019-04-30T02:00:33.255Z,97.90
2019-04-30T02:03:02.619Z,98.00
2019-04-30T02:05:32.018Z,97.70
2019-04-30T02:08:01.362Z,97.50
2019-04-30T02:10:30.797Z,97.90
2019-04-30T02:13:00.183Z,97.90
2019-04-30T02:15:29.545Z,97.60
2019-04-30T02:17:58.997Z,97.60
2019-04-30T02:20:28.806Z,97.50
2019-04-30T02:22:58.795Z,97.90
2019-04-30T02:25:29.528Z,97.60
2019-04-30T02:27:59.482Z,97.40
2019-04-30T02:30:30.813Z,97.10
2019-04-30T02:33:00.710Z,97.10
2019-04-30T02:35:31.950Z,97.30
2019-04-30T02:38:11.912Z,97.40
2019-04-30T02:40:42.644Z,97.00
2019-04-30T02:43:14.195Z,96.90
2019-04-30T02:45:46.471Z,97.00
2019-04-30T02:48:19.427Z,97.10
2019-04-30T02:50:50.620Z,96.90
2019-04-30T02:53:51.812Z,96.70
2019-04-30T02:56:26.240Z,96.70
2019-04-30T02:58:54.185Z,96.40
2019-04-30T03:01:23.632Z,96.50
2019-04-30T03:03:53.056Z,96.50
2019-04-30T03:06:23.735Z,96.60
2019-04-30T03:08:53.450Z,96.50
2019-04-30T03:11:22.938Z,97.20
2019-04-30T03:13:53.826Z,96.60
2019-04-30T03:16:37.110Z,96.60
2019-04-30T03:19:26.280Z,96.80
2019-04-30T03:22:06.086Z,96.40
2019-04-30T03:24:35.538Z,96.40
2019-04-30T03:27:04.895Z,96.50
2019-04-30T03:29:34.274Z,96.40
2019-04-30T03:32:03.825Z,96.40
2019-04-30T03:34:33.493Z,96.20
2019-04-30T03:37:03.439Z,96.00
2019-04-30T03:39:34.031Z,96.10
2019-04-30T03:42:03.674Z,96.60
2019-04-30T03:44:33.041Z,96.40
2019-04-30T03:47:02.385Z,96.20
2019-04-30T03:49:31.755Z,96.20
2019-04-30T03:52:01.177Z,96.30
2019-04-30T03:54:30.546Z,96.20
2019-04-30T03:57:01.083Z,96.20
2019-04-30T03:59:30.588Z,96.20
2019-04-30T04:02:13.864Z,95.70
2019-04-30T04:04:56.927Z,96.30
2019-04-30T04:07:30.034Z,96.10
2019-04-30T04:10:06.544Z,96.10
2019-04-30T04:12:35.986Z,95.80
2019-04-30T04:15:06.798Z,96.20
2019-04-30T04:17:36.224Z,96.20
2019-04-30T04:20:06.210Z,95.90
2019-04-30T04:22:35.664Z,96.10
2019-04-30T04:25:06.459Z,95.90
2019-04-30T04:27:35.831Z,95.70
2019-04-30T04:30:10.691Z,96.00
2019-04-30T04:32:40.874Z,95.70
2019-04-30T04:35:12.703Z,96.00
2019-04-30T04:37:41.882Z,95.60
2019-04-30T04:40:11.584Z,95.60
2019-04-30T04:42:40.952Z,95.70
2019-04-30T04:45:10.458Z,96.10
2019-04-30T04:47:40.390Z,95.50
2019-04-30T04:50:10.573Z,96.10
2019-04-30T04:52:40.187Z,96.30
2019-04-30T04:55:10.651Z,96.30
2019-04-30T04:57:40.281Z,95.90
2019-04-30T05:00:10.914Z,96.10
2019-04-30T05:02:49.793Z,96.00
2019-04-30T05:05:19.586Z,96.00
2019-04-30T05:07:49.201Z,96.50
2019-04-30T05:10:19.362Z,96.50
2019-04-30T05:12:50.635Z,96.40
2019-04-30T05:15:19.975Z,96.10
2019-04-30T05:17:49.583Z,96.30
2019-04-30T05:20:19.588Z,96.70
2019-04-30T05:22:49.049Z,96.30
2019-04-30T05:25:18.792Z,96.30
2019-04-30T05:27:48.800Z,96.10
2019-04-30T05:30:19.780Z,96.10
2019-04-30T05:32:50.925Z,95.60
2019-04-30T05:35:20.549Z,96.00
2019-04-30T05:37:49.911Z,95.80
2019-04-30T05:40:19.438Z,95.20
2019-04-30T05:42:49.674Z,95.40
2019-04-30T05:45:19.431Z,95.00
2019-04-30T05:47:50.617Z,94.70
2019-04-30T05:50:20.308Z,94.70
2019-04-30T05:52:49.772Z,94.80
2019-04-30T05:55:19.828Z,94.70
2019-04-30T05:57:55.915Z,95.10
2019-04-30T06:00:21.117Z,94.70
2019-04-30T06:02:50.739Z,94.30
2019-04-30T06:05:20.326Z,94.00
2019-04-30T06:07:52.079Z,94.30
2019-04-30T06:10:25.167Z,94.00
2019-04-30T06:12:56.262Z,93.80
2019-04-30T06:15:39.703Z,93.50
2019-04-30T06:18:13.513Z,93.00
2019-04-30T06:20:40.410Z,92.80
2019-04-30T06:23:09.828Z,92.60
2019-04-30T06:25:55.783Z,92.20
2019-04-30T06:28:11.368Z,92.20
2019-04-30T06:30:41.172Z,92.00
2019-04-30T06:33:11.768Z,92.40
2019-04-30T06:35:41.332Z,92.60
2019-04-30T06:38:10.771Z,92.10
2019-04-30T06:40:40.566Z,91.50
2019-04-30T06:43:10.267Z,92.00
2019-04-30T06:45:39.799Z,91.50
2019-04-30T06:48:09.904Z,91.50
2019-04-30T06:50:39.495Z,91.50
2019-04-30T06:53:09.442Z,91.30
2019-04-30T06:55:39.367Z,92.20
2019-04-30T06:58:15.052Z,92.00
2019-04-30T07:00:40.636Z,91.00
2019-04-30T07:03:10.089Z,90.10
2019-04-30T07:05:40.135Z,87.20
2019-04-30T07:08:37.244Z,87.00
2019-04-30T07:11:20.996Z,85.20
2019-04-30T07:13:52.271Z,84.60
2019-04-30T07:16:21.952Z,85.20
2019-04-30T07:18:51.359Z,85.20
2019-04-30T07:21:20.730Z,86.10
2019-04-30T07:23:50.115Z,84.90
2019-04-30T07:26:24.178Z,84.20
2019-04-30T07:28:54.813Z,84.80
2019-04-30T07:31:21.774Z,82.20
2019-04-30T07:33:53.812Z,83.10
2019-04-30T07:36:22.430Z,75.10
2019-04-30T07:38:56.348Z,76.20
2019-04-30T07:41:22.835Z,76.20
2019-04-30T07:43:52.206Z,74.40
2019-04-30T07:46:21.572Z,75.50
2019-04-30T07:48:51.022Z,74.70
2019-04-30T07:51:21.826Z,73.80
2019-04-30T07:53:51.661Z,71.70
2019-04-30T07:56:28.031Z,71.20
2019-04-30T07:58:52.163Z,70.00
2019-04-30T08:01:21.595Z,69.40
2019-04-30T08:03:52.933Z,68.50
2019-04-30T08:06:22.916Z,67.70
2019-04-30T08:08:57.296Z,68.00
2019-04-30T08:11:26.349Z,68.70
2019-04-30T08:13:54.448Z,69.10
2019-04-30T08:16:23.998Z,65.40
2019-04-30T08:18:53.693Z,66.50
2019-04-30T08:21:23.075Z,66.90
2019-04-30T08:23:52.434Z,64.80
2019-04-30T08:26:21.953Z,64.20
2019-04-30T08:28:51.315Z,66.00
2019-04-30T08:31:20.664Z,60.90
2019-04-30T08:33:50.027Z,64.60
2019-04-30T08:36:19.786Z,65.80
2019-04-30T08:38:49.615Z,62.60
2019-04-30T08:41:19.459Z,58.50
2019-04-30T08:43:49.672Z,59.30
2019-04-30T08:46:19.357Z,58.30
2019-04-30T08:48:51.729Z,57.10
2019-04-30T08:51:20.210Z,55.60
2019-04-30T08:53:50.018Z,55.90
2019-04-30T08:56:21.993Z,55.60
2019-04-30T08:58:50.567Z,56.90
2019-04-30T09:01:20.088Z,56.30
2019-04-30T09:03:51.282Z,55.40
2019-04-30T09:06:22.339Z,53.00
2019-04-30T09:08:52.292Z,53.20
2019-04-30T09:11:28.152Z,56.30
2019-04-30T09:13:52.831Z,56.20
2019-04-30T09:16:22.327Z,53.60
2019-04-30T09:18:51.792Z,53.40
2019-04-30T09:21:21.213Z,53.00
2019-04-30T09:23:52.850Z,51.10
2019-04-30T09:26:21.733Z,53.50
2019-04-30T09:28:51.192Z,52.70
2019-04-30T09:31:20.539Z,50.50
2019-04-30T09:33:49.955Z,50.50
2019-04-30T09:36:20.873Z,48.90
2019-04-30T09:38:50.622Z,48.70
2019-04-30T09:41:19.974Z,48.90
2019-04-30T09:43:49.502Z,50.10
2019-04-30T09:46:26.616Z,50.00
2019-04-30T09:48:50.820Z,47.20
2019-04-30T09:51:23.926Z,46.80
2019-04-30T09:53:59.124Z,44.90
2019-04-30T09:56:22.902Z,42.70
2019-04-30T09:58:52.245Z,43.70
2019-04-30T10:01:22.129Z,44.30
2019-04-30T10:03:52.112Z,46.00
2019-04-30T10:06:36.331Z,45.50
2019-04-30T10:08:53.531Z,45.20
2019-04-30T10:11:36.411Z,48.10
2019-04-30T10:14:06.035Z,44.20
2019-04-30T10:16:43.055Z,45.10
2019-04-30T10:19:14.916Z,44.40
2019-04-30T10:21:43.856Z,45.80
2019-04-30T10:24:15.786Z,47.00
2019-04-30T10:26:44.686Z,45.20
2019-04-30T10:29:15.883Z,44.90
2019-04-30T10:31:45.321Z,45.80
2019-04-30T10:34:14.654Z,44.30
2019-04-30T10:36:44.017Z,42.60
2019-04-30T10:39:13.446Z,43.20
2019-04-30T10:41:42.866Z,44.60
2019-04-30T10:44:12.260Z,45.70
2019-04-30T10:46:41.688Z,45.90
2019-04-30T10:49:11.302Z,44.40
2019-04-30T10:51:40.646Z,45.70
2019-04-30T10:54:22.620Z,43.00
2019-04-30T10:56:41.202Z,43.20
2019-04-30T10:59:10.610Z,42.80
2019-04-30T11:01:40.044Z,44.20
2019-04-30T11:04:29.077Z,41.20
2019-04-30T11:07:00.385Z,39.00
2019-04-30T11:09:31.020Z,41.30
2019-04-30T11:12:03.043Z,41.00
2019-04-30T11:14:32.331Z,40.30
2019-04-30T11:17:01.949Z,40.30
2019-04-30T11:19:31.668Z,42.20
2019-04-30T11:22:01.413Z,38.60
2019-04-30T11:24:36.709Z,39.90
2019-04-30T11:27:02.884Z,39.40
2019-04-30T11:29:32.690Z,39.30
2019-04-30T11:32:03.965Z,40.80
2019-04-30T11:34:33.527Z,37.60
2019-04-30T11:37:03.034Z,38.90
2019-04-30T11:39:32.446Z,38.30
2019-04-30T11:42:01.858Z,38.90
2019-04-30T11:44:31.687Z,40.10
2019-04-30T11:47:04.354Z,40.40
2019-04-30T11:49:33.718Z,38.50
2019-04-30T11:52:03.127Z,38.70
2019-04-30T11:54:35.399Z,38.80
2019-04-30T11:57:05.344Z,39.10
2019-04-30T11:59:34.712Z,39.70
2019-04-30T12:02:06.234Z,38.80
2019-04-30T12:04:35.608Z,39.90
2019-04-30T12:07:06.726Z,40.40
2019-04-30T12:09:40.631Z,39.70
2019-04-30T12:12:09.981Z,41.80
2019-04-30T12:14:39.605Z,41.30
2019-04-30T12:17:09.246Z,40.20
2019-04-30T12:19:38.899Z,39.10
2019-04-30T12:22:08.322Z,39.00
2019-04-30T12:24:38.835Z,40.20
2019-04-30T12:27:08.286Z,41.10
2019-04-30T12:29:39.621Z,40.30
2019-04-30T12:32:08.822Z,40.80
2019-04-30T12:34:38.220Z,39.60
2019-04-30T12:37:10.623Z,38.90
2019-04-30T12:39:39.459Z,39.60
2019-04-30T12:42:08.998Z,40.00
2019-04-30T12:44:40.114Z,39.40
2019-04-30T12:47:09.935Z,39.90
2019-04-30T12:49:46.678Z,39.30
2019-04-30T12:52:23.527Z,39.10
2019-04-30T12:55:00.262Z,39.00
2019-04-30T12:57:39.109Z,40.20
2019-04-30T13:00:12.590Z,40.10
2019-04-30T13:02:42.011Z,40.70
2019-04-30T13:05:12.721Z,40.80
2019-04-30T13:07:42.589Z,40.90
2019-04-30T13:10:13.295Z,41.40
2019-04-30T13:12:43.607Z,42.50
2019-04-30T13:15:14.016Z,41.30
2019-04-30T13:17:43.360Z,42.20
2019-04-30T13:20:21.026Z,41.40
2019-04-30T13:22:44.360Z,41.50
2019-04-30T13:25:14.375Z,41.40
2019-04-30T13:27:45.338Z,42.50
2019-04-30T13:30:18.586Z,42.10
2019-04-30T13:32:49.770Z,43.70
2019-04-30T13:35:19.197Z,43.10
2019-04-30T13:37:58.671Z,43.30
2019-04-30T13:40:29.732Z,42.10
2019-04-30T13:43:00.779Z,43.00
2019-04-30T13:45:30.210Z,44.80
2019-04-30T13:47:59.547Z,44.70
2019-04-30T13:50:29.273Z,43.30
2019-04-30T13:53:01.875Z,43.50
2019-04-30T13:55:42.995Z,44.70
2019-04-30T13:58:02.426Z,44.10
2019-04-30T14:00:31.940Z,44.00
2019-04-30T14:03:14.738Z,43.50
2019-04-30T14:05:44.107Z,42.90
2019-04-30T14:08:28.828Z,43.90
2019-04-30T14:10:59.174Z,44.00
2019-04-30T14:13:28.958Z,44.60
2019-04-30T14:15:58.325Z,44.60
2019-04-30T14:18:31.481Z,44.40
2019-04-30T14:21:00.965Z,45.10
2019-04-30T14:23:30.352Z,45.70
2019-04-30T14:26:01.156Z,44.30
2019-04-30T14:28:30.758Z,45.10
2019-04-30T14:31:00.314Z,46.60
2019-04-30T14:33:29.755Z,47.10
2019-04-30T14:36:00.875Z,46.50
2019-04-30T14:38:30.315Z,46.50
2019-04-30T14:41:00.982Z,45.70
2019-04-30T14:43:35.866Z,46.00
2019-04-30T14:46:24.519Z,46.10
2019-04-30T14:49:14.946Z,45.50
2019-04-30T14:51:43.123Z,48.20
2019-04-30T14:54:32.167Z,47.70
2019-04-30T14:57:05.942Z,48.00
2019-04-30T14:59:48.826Z,47.20
2019-04-30T15:02:19.967Z,45.50
2019-04-30T15:04:49.379Z,45.90
2019-04-30T15:07:19.470Z,46.50
2019-04-30T15:09:48.887Z,46.60
2019-04-30T15:12:18.341Z,47.00
2019-04-30T15:14:49.291Z,46.50
2019-04-30T15:17:18.844Z,45.50
2019-04-30T15:19:49.411Z,45.80
2019-04-30T15:22:19.682Z,46.40
2019-04-30T15:24:49.271Z,45.80
2019-04-30T15:27:19.209Z,45.70
2019-04-30T15:29:56.698Z,46.50
2019-04-30T15:32:20.046Z,47.20
2019-04-30T15:34:49.394Z,48.20
2019-04-30T15:37:23.502Z,47.20
2019-04-30T15:39:52.261Z,47.20
2019-04-30T15:42:22.403Z,47.90
2019-04-30T15:44:51.753Z,47.50
2019-04-30T15:47:22.847Z,47.40
2019-04-30T15:49:52.221Z,47.20
2019-04-30T15:52:21.758Z,47.70
2019-04-30T15:54:51.333Z,47.90
2019-04-30T15:57:20.815Z,48.50
2019-04-30T15:59:50.254Z,48.50
2019-04-30T16:02:23.954Z,48.30
2019-04-30T16:05:09.915Z,47.90
2019-04-30T16:07:41.002Z,47.60
2019-04-30T16:10:24.256Z,48.20
2019-04-30T16:12:58.922Z,48.00
2019-04-30T16:15:29.746Z,47.70
2019-04-30T16:18:00.855Z,47.70
2019-04-30T16:20:30.374Z,48.30
2019-04-30T16:22:59.856Z,48.40
2019-04-30T16:25:30.367Z,47.90
2019-04-30T16:27:59.986Z,47.80
2019-04-30T16:30:29.474Z,47.50
2019-04-30T16:32:59.659Z,48.50
2019-04-30T16:35:29.619Z,48.80
2019-04-30T16:37:59.485Z,49.00
2019-04-30T16:40:29.151Z,48.50
2019-04-30T16:42:58.703Z,49.10
2019-04-30T16:45:29.051Z,49.00
2019-04-30T16:47:58.583Z,49.10
2019-04-30T16:50:29.834Z,49.50
2019-04-30T16:52:59.628Z,50.00
2019-04-30T16:55:29.042Z,49.90
2019-04-30T16:57:58.639Z,50.20
2019-04-30T17:00:29.078Z,50.00
2019-04-30T17:03:01.160Z,50.30
2019-04-30T17:05:49.785Z,50.20
2019-04-30T17:08:36.592Z,50.00
2019-04-30T17:11:07.667Z,49.90
2019-04-30T17:13:38.958Z,49.90
2019-04-30T17:16:12.738Z,50.30
2019-04-30T17:18:42.114Z,50.60
2019-04-30T17:21:11.508Z,50.20
2019-04-30T17:23:40.856Z,50.90
2019-04-30T17:26:10.287Z,50.00
2019-04-30T17:28:39.628Z,50.00
2019-04-30T17:31:09.721Z,50.30
2019-04-30T17:33:39.329Z,50.80
2019-04-30T17:36:11.014Z,50.40
2019-04-30T17:38:39.752Z,50.50
2019-04-30T17:41:09.193Z,50.90
2019-04-30T17:43:39.463Z,50.40
2019-04-30T17:46:12.001Z,50.90
2019-04-30T17:48:41.383Z,50.90
2019-04-30T17:51:10.738Z,51.20
2019-04-30T17:53:41.823Z,51.40
2019-04-30T17:56:11.247Z,51.70
2019-04-30T17:58:40.747Z,52.00
2019-04-30T18:01:10.761Z,51.80
2019-04-30T18:03:40.107Z,52.20
2019-04-30T18:06:09.475Z,53.00
2019-04-30T18:08:38.928Z,53.40
2019-04-30T18:11:08.288Z,52.90
2019-04-30T18:13:37.722Z,54.00
2019-04-30T18:16:08.735Z,54.50
2019-04-30T18:18:39.785Z,55.20
2019-04-30T18:21:19.350Z,55.50
2019-04-30T18:24:08.640Z,55.20
2019-04-30T18:26:39.730Z,55.90
2019-04-30T18:29:09.149Z,56.40
2019-04-30T18:31:38.494Z,56.90
2019-04-30T18:34:09.463Z,57.20
2019-04-30T18:36:39.373Z,57.50
2019-04-30T18:39:08.975Z,57.20
2019-04-30T18:41:38.495Z,57.70
2019-04-30T18:44:09.487Z,57.40
2019-04-30T18:46:39.127Z,57.60
2019-04-30T18:49:10.346Z,57.50
2019-04-30T18:51:42.695Z,57.50
2019-04-30T18:54:11.008Z,57.80
2019-04-30T18:56:40.391Z,58.40
2019-04-30T18:59:09.803Z,58.50
2019-04-30T19:01:39.172Z,58.40
2019-04-30T19:04:09.173Z,58.30
2019-04-30T19:06:38.609Z,58.80
2019-04-30T19:09:26.183Z,58.20
2019-04-30T19:12:13.831Z,58.90
2019-04-30T19:14:59.771Z,58.50
2019-04-30T19:17:33.344Z,59.20
2019-04-30T19:20:20.856Z,59.30
2019-04-30T19:22:50.395Z,59.30
2019-04-30T19:25:19.746Z,59.50
2019-04-30T19:27:49.127Z,59.60
2019-04-30T19:30:19.440Z,60.00
2019-04-30T19:32:49.212Z,60.00
2019-04-30T19:35:18.795Z,60.40
2019-04-30T19:37:48.769Z,61.00
2019-04-30T19:40:19.086Z,61.30
2019-04-30T19:42:50.930Z,61.20
2019-04-30T19:45:20.568Z,60.80
2019-04-30T19:47:50.398Z,61.70
2019-04-30T19:50:20.601Z,61.40
2019-04-30T19:52:50.239Z,61.60
2019-04-30T19:55:20.702Z,62.80
2019-04-30T19:57:51.098Z,62.50
2019-04-30T20:00:21.698Z,63.20
2019-04-30T20:02:51.542Z,64.20
2019-04-30T20:05:20.951Z,64.30
2019-04-30T20:07:50.387Z,64.30
2019-04-30T20:10:20.183Z,63.90
2019-04-30T20:12:49.903Z,65.10
2019-04-30T20:15:24.411Z,65.30
2019-04-30T20:17:50.732Z,64.80
2019-04-30T20:20:20.440Z,65.80
2019-04-30T20:22:51.941Z,65.00
2019-04-30T20:25:21.111Z,65.40
2019-04-30T20:27:50.459Z,65.00
2019-04-30T20:30:19.907Z,64.70
2019-04-30T20:32:51.384Z,65.10
2019-04-30T20:35:20.846Z,64.20
2019-04-30T20:38:09.492Z,65.00
2019-04-30T20:40:43.560Z,65.40
2019-04-30T20:43:11.731Z,65.70
2019-04-30T20:45:41.179Z,66.50
2019-04-30T20:48:10.570Z,66.90
2019-04-30T20:50:39.951Z,67.10
2019-04-30T20:53:09.401Z,67.10
2019-04-30T20:55:40.820Z,67.60
2019-04-30T20:58:09.971Z,67.40
2019-04-30T21:00:39.340Z,66.20
2019-04-30T21:03:09.692Z,66.90
2019-04-30T21:05:39.338Z,66.50
2019-04-30T21:08:08.859Z,66.50
2019-04-30T21:10:39.670Z,68.40
2019-04-30T21:13:11.131Z,67.40
2019-04-30T21:15:40.221Z,67.90
2019-04-30T21:18:09.662Z,68.10
2019-04-30T21:20:39.376Z,67.90
2019-04-30T21:23:09.452Z,67.50
2019-04-30T21:25:38.995Z,68.00
2019-04-30T21:28:09.747Z,68.10
2019-04-30T21:31:00.267Z,67.90
2019-04-30T21:33:43.375Z,67.00
2019-04-30T21:36:14.468Z,68.10
2019-04-30T21:38:43.953Z,68.50
2019-04-30T21:41:13.406Z,68.90
2019-04-30T21:43:42.785Z,68.90
2019-04-30T21:46:12.113Z,68.20
2019-04-30T21:48:41.566Z,69.00
2019-04-30T21:51:10.971Z,69.10
2019-04-30T21:53:40.338Z,69.40
2019-04-30T21:56:09.708Z,69.20
2019-04-30T21:58:39.338Z,69.10
2019-04-30T22:01:13.658Z,69.20
2019-04-30T22:03:44.903Z,69.40
2019-04-30T22:06:14.394Z,69.00
2019-04-30T22:08:43.830Z,69.50
2019-04-30T22:11:13.255Z,71.20
2019-04-30T22:13:43.218Z,70.00
2019-04-30T22:16:12.939Z,70.50
2019-04-30T22:18:42.287Z,70.30
2019-04-30T22:21:11.799Z,70.30
2019-04-30T22:23:41.159Z,70.80
2019-04-30T22:26:10.528Z,69.90
2019-04-30T22:28:41.296Z,71.00
2019-04-30T22:31:10.739Z,71.40
2019-04-30T22:33:40.106Z,70.40
2019-04-30T22:36:18.884Z,70.80
2019-04-30T22:38:50.162Z,71.30
2019-04-30T22:41:21.170Z,72.10
2019-04-30T22:43:50.539Z,71.40
2019-04-30T22:46:20.098Z,72.20
2019-04-30T22:48:49.527Z,71.80
2019-04-30T22:51:18.892Z,71.80
2019-04-30T22:53:48.258Z,71.90
2019-04-30T22:56:17.607Z,71.50
2019-04-30T22:58:47.110Z,71.60
2019-04-30T23:01:33.159Z,72.20
2019-04-30T23:04:13.547Z,71.80
2019-04-30T23:06:42.907Z,72.30
2019-04-30T23:09:13.842Z,72.30
2019-04-30T23:11:43.347Z,73.10
2019-04-30T23:14:12.798Z,72.70
2019-04-30T23:16:42.201Z,73.20
2019-04-30T23:19:11.568Z,72.90
2019-04-30T23:21:40.983Z,73.70
2019-04-30T23:24:10.357Z,72.40
2019-04-30T23:26:39.714Z,73.30
2019-04-30T23:29:09.106Z,73.20
2019-04-30T23:31:38.466Z,73.60
2019-04-30T23:34:17.628Z,73.60
2019-04-30T23:36:38.935Z,73.70
2019-04-30T23:39:10.127Z,73.60
2019-04-30T23:41:39.506Z,73.90
2019-04-30T23:44:08.964Z,73.90
2019-04-30T23:46:38.412Z,74.50
2019-04-30T23:49:07.779Z,74.30
2019-04-30T23:51:37.130Z,73.90
2019-04-30T23:54:06.567Z,74.40
2019-04-30T23:56:36.017Z,75.40
2019-04-30T23:59:05.548Z,74.40
